createdAt,value
2018-03-02T00:00:04.650Z,-5.15
2018-03-02T00:02:38.405Z,-5.21
2018-03-02T00:05:12.392Z,-5.27
2018-03-02T00:07:46.118Z,-5.29
2018-03-02T00:10:19.670Z,-5.27
2018-03-02T00:12:53.229Z,-5.25
2018-03-02T00:15:26.765Z,-5.28
2018-03-02T00:18:00.405Z,-5.35
2018-03-02T00:20:34.081Z,-5.21
2018-03-02T00:23:07.643Z,-5.26
2018-03-02T00:25:41.193Z,-5.22
2018-03-02T00:28:14.786Z,-5.23
2018-03-02T00:30:48.354Z,-5.22
2018-03-02T00:33:22.015Z,-5.21
2018-03-02T00:35:55.782Z,-5.16
2018-03-02T00:38:29.684Z,-5.20
2018-03-02T00:41:03.482Z,-5.25
2018-03-02T00:43:37.165Z,-5.26
2018-03-02T00:46:10.775Z,-5.28
2018-03-02T00:48:44.549Z,-5.29
2018-03-02T00:51:18.247Z,-5.27
2018-03-02T00:53:51.908Z,-5.27
2018-03-02T00:56:25.459Z,-5.32
2018-03-02T00:58:59.211Z,-5.35
2018-03-02T01:01:32.938Z,-5.38
2018-03-02T01:04:06.550Z,-5.28
2018-03-02T01:06:40.142Z,-5.31
2018-03-02T01:09:13.693Z,-5.32
2018-03-02T01:11:47.340Z,-5.36
2018-03-02T01:14:20.873Z,-5.40
2018-03-02T01:16:54.434Z,-5.36
2018-03-02T01:19:28.105Z,-5.31
2018-03-02T01:22:01.850Z,-5.35
2018-03-02T01:24:35.475Z,-5.32
2018-03-02T01:27:09.067Z,-5.32
2018-03-02T01:29:42.645Z,-5.32
2018-03-02T01:32:16.234Z,-5.32
2018-03-02T01:34:49.861Z,-5.44
2018-03-02T01:37:23.562Z,-5.49
2018-03-02T01:39:57.166Z,-5.45
2018-03-02T01:42:30.745Z,-5.41
2018-03-02T01:45:04.570Z,-5.40
2018-03-02T01:47:38.121Z,-5.34
2018-03-02T01:50:11.701Z,-5.38
2018-03-02T01:52:45.237Z,-5.36
2018-03-02T01:55:18.952Z,-5.37
2018-03-02T01:57:52.478Z,-5.32
2018-03-02T02:00:26.066Z,-5.35
2018-03-02T02:02:59.861Z,-5.33
2018-03-02T02:05:33.651Z,-5.31
2018-03-02T02:08:07.175Z,-5.31
2018-03-02T02:10:40.933Z,-5.28
2018-03-02T02:13:14.653Z,-5.31
2018-03-02T02:15:48.292Z,-5.38
2018-03-02T02:18:21.886Z,-5.27
2018-03-02T02:20:55.995Z,-5.33
2018-03-02T02:23:29.630Z,-5.33
2018-03-02T02:26:03.233Z,-5.36
2018-03-02T02:28:36.993Z,-5.34
2018-03-02T02:31:10.569Z,-5.32
2018-03-02T02:33:44.790Z,-5.34
2018-03-02T02:36:18.457Z,-5.36
2018-03-02T02:38:51.985Z,-5.32
2018-03-02T02:41:25.576Z,-5.38
2018-03-02T02:43:59.371Z,-5.43
2018-03-02T02:46:33.208Z,-5.42
2018-03-02T02:49:06.982Z,-5.39
2018-03-02T02:51:40.626Z,-5.42
2018-03-02T02:54:14.237Z,-5.35
2018-03-02T02:56:47.820Z,-5.35
2018-03-02T02:59:21.599Z,-5.35
2018-03-02T03:01:55.076Z,-5.26
2018-03-02T03:04:28.724Z,-5.41
2018-03-02T03:07:02.413Z,-5.38
2018-03-02T03:09:36.585Z,-5.39
2018-03-02T03:12:10.349Z,-5.37
2018-03-02T03:14:43.839Z,-5.44
2018-03-02T03:17:17.409Z,-5.39
2018-03-02T03:19:51.032Z,-5.40
2018-03-02T03:22:24.621Z,-5.39
2018-03-02T03:24:58.193Z,-5.38
2018-03-02T03:27:31.826Z,-5.43
2018-03-02T03:30:05.542Z,-5.41
2018-03-02T03:32:39.124Z,-5.51
2018-03-02T03:35:13.116Z,-5.52
2018-03-02T03:37:46.609Z,-5.52
2018-03-02T03:40:20.156Z,-5.48
2018-03-02T03:42:53.940Z,-5.48
2018-03-02T03:45:27.569Z,-5.55
2018-03-02T03:48:01.057Z,-5.44
2018-03-02T03:50:34.853Z,-5.50
2018-03-02T03:53:08.431Z,-5.51
2018-03-02T03:55:42.148Z,-5.60
2018-03-02T03:58:15.961Z,-5.54
2018-03-02T04:00:49.621Z,-5.54
2018-03-02T04:03:23.345Z,-5.58
2018-03-02T04:05:56.917Z,-5.56
2018-03-02T04:08:30.518Z,-5.55
2018-03-02T04:11:04.225Z,-5.51
2018-03-02T04:13:37.772Z,-5.50
2018-03-02T04:16:11.558Z,-5.46
2018-03-02T04:18:45.261Z,-5.54
2018-03-02T04:21:18.933Z,-5.51
2018-03-02T04:23:52.466Z,-5.50
2018-03-02T04:26:26.213Z,-5.58
2018-03-02T04:28:59.725Z,-5.59
2018-03-02T04:31:33.296Z,-5.55
2018-03-02T04:34:06.907Z,-5.53
2018-03-02T04:36:40.482Z,-5.58
2018-03-02T04:39:14.186Z,-5.59
2018-03-02T04:41:47.780Z,-5.65
2018-03-02T04:44:21.469Z,-5.56
2018-03-02T04:46:55.124Z,-5.57
2018-03-02T04:49:28.897Z,-5.53
2018-03-02T04:52:02.581Z,-5.57
2018-03-02T04:54:36.128Z,-5.60
2018-03-02T04:57:09.697Z,-5.58
2018-03-02T04:59:43.390Z,-5.52
2018-03-02T05:02:17.087Z,-5.50
2018-03-02T05:04:50.641Z,-5.49
2018-03-02T05:07:24.194Z,-5.40
2018-03-02T05:09:57.873Z,-5.39
2018-03-02T05:12:31.392Z,-5.37
2018-03-02T05:15:05.058Z,-5.38
2018-03-02T05:17:38.724Z,-5.42
2018-03-02T05:20:12.416Z,-5.43
2018-03-02T05:22:46.244Z,-5.44
2018-03-02T05:25:19.841Z,-5.48
2018-03-02T05:27:53.384Z,-5.45
2018-03-02T05:30:26.988Z,-5.47
2018-03-02T05:33:00.718Z,-5.46
2018-03-02T05:35:34.238Z,-5.48
2018-03-02T05:38:07.794Z,-5.38
2018-03-02T05:40:41.469Z,-5.28
2018-03-02T05:43:14.993Z,-5.34
2018-03-02T05:45:48.610Z,-5.34
2018-03-02T05:48:22.364Z,-5.29
2018-03-02T05:50:55.945Z,-5.28
2018-03-02T05:53:29.670Z,-5.27
2018-03-02T05:56:03.376Z,-5.28
2018-03-02T05:58:37.161Z,-5.26
2018-03-02T06:01:10.774Z,-5.30
2018-03-02T06:03:44.469Z,-5.23
2018-03-02T06:06:18.241Z,-5.29
2018-03-02T06:08:51.802Z,-5.29
2018-03-02T06:11:25.422Z,-5.29
2018-03-02T06:13:59.010Z,-5.29
2018-03-02T06:16:32.659Z,-5.25
2018-03-02T06:19:06.186Z,-5.21
2018-03-02T06:21:39.830Z,-5.24
2018-03-02T06:24:13.433Z,-5.14
2018-03-02T06:26:47.107Z,-5.16
2018-03-02T06:29:20.690Z,-5.10
2018-03-02T06:31:54.301Z,-5.17
2018-03-02T06:34:27.861Z,-5.21
2018-03-02T06:37:01.612Z,-5.21
2018-03-02T06:39:35.169Z,-5.21
2018-03-02T06:42:08.864Z,-5.20
2018-03-02T06:44:42.481Z,-5.24
2018-03-02T06:47:16.208Z,-5.20
2018-03-02T06:49:49.946Z,-5.14
2018-03-02T06:52:23.601Z,-5.04
2018-03-02T06:54:57.197Z,-5.03
2018-03-02T06:57:30.953Z,-5.01
2018-03-02T07:00:04.573Z,-4.93
2018-03-02T07:02:38.294Z,-4.67
2018-03-02T07:05:11.898Z,-4.74
2018-03-02T07:07:45.699Z,-4.68
2018-03-02T07:10:19.275Z,-4.60
2018-03-02T07:12:52.829Z,-4.57
2018-03-02T07:15:26.629Z,-4.55
2018-03-02T07:18:00.259Z,-4.54
2018-03-02T07:20:33.990Z,-4.42
2018-03-02T07:23:07.750Z,-4.50
2018-03-02T07:25:41.546Z,-4.41
2018-03-02T07:28:15.241Z,-4.28
2018-03-02T07:30:49.384Z,-4.14
2018-03-02T07:33:22.861Z,-3.89
2018-03-02T07:35:57.221Z,-3.41
2018-03-02T07:38:30.985Z,-2.84
2018-03-02T07:41:04.662Z,-2.04
2018-03-02T07:43:38.429Z,-1.96
2018-03-02T07:46:12.233Z,-1.67
2018-03-02T07:48:45.981Z,-0.67
2018-03-02T07:51:19.608Z,0.52
2018-03-02T07:53:54.193Z,0.82
2018-03-02T07:56:27.907Z,1.46
2018-03-02T07:59:01.494Z,2.16
2018-03-02T08:01:35.013Z,1.95
2018-03-02T08:04:08.726Z,2.31
2018-03-02T08:06:44.386Z,2.28
2018-03-02T08:09:18.130Z,1.47
2018-03-02T08:11:52.139Z,1.01
2018-03-02T08:14:25.683Z,0.51
2018-03-02T08:16:59.335Z,0.80
2018-03-02T08:19:32.965Z,0.76
2018-03-02T08:22:06.530Z,0.05
2018-03-02T08:24:40.155Z,-0.19
2018-03-02T08:27:13.914Z,-0.49
2018-03-02T08:29:47.639Z,-0.41
2018-03-02T08:32:21.225Z,-0.43
2018-03-02T08:34:55.087Z,-0.45
2018-03-02T08:37:28.762Z,-0.69
2018-03-02T08:40:02.475Z,-0.79
2018-03-02T08:42:36.150Z,-1.07
2018-03-02T08:45:10.026Z,-1.07
2018-03-02T08:47:43.878Z,-1.06
2018-03-02T08:50:17.634Z,-1.06
2018-03-02T08:52:51.367Z,-0.90
2018-03-02T08:55:25.046Z,-1.08
2018-03-02T08:57:58.599Z,-0.71
2018-03-02T09:00:32.286Z,-1.16
2018-03-02T09:03:06.014Z,-1.05
2018-03-02T09:05:39.667Z,-1.22
2018-03-02T09:08:13.398Z,-1.19
2018-03-02T09:10:47.306Z,-1.28
2018-03-02T09:13:21.092Z,-1.22
2018-03-02T09:15:54.686Z,-0.86
2018-03-02T09:18:28.316Z,-0.97
2018-03-02T09:21:01.883Z,-1.03
2018-03-02T09:23:35.675Z,-0.92
2018-03-02T09:26:09.182Z,-1.04
2018-03-02T09:28:42.846Z,-1.01
2018-03-02T09:31:16.612Z,-0.98
2018-03-02T09:33:50.393Z,-0.94
2018-03-02T09:36:23.938Z,-0.68
2018-03-02T09:38:57.933Z,-0.76
2018-03-02T09:41:31.533Z,-0.95
2018-03-02T09:44:05.175Z,-0.82
2018-03-02T09:46:45.579Z,-0.89
2018-03-02T09:49:19.179Z,-0.88
2018-03-02T09:51:52.970Z,-0.54
2018-03-02T09:54:26.550Z,-0.48
2018-03-02T09:57:00.246Z,-0.34
2018-03-02T09:59:33.962Z,-0.06
2018-03-02T10:02:07.746Z,0.06
2018-03-02T10:04:41.422Z,-0.23
2018-03-02T10:07:15.009Z,-0.12
2018-03-02T10:09:48.549Z,-0.20
2018-03-02T10:12:22.232Z,0.00
2018-03-02T10:14:55.855Z,0.15
2018-03-02T10:17:29.537Z,0.28
2018-03-02T10:20:03.293Z,0.34
2018-03-02T10:22:36.942Z,0.43
2018-03-02T10:25:10.593Z,0.56
2018-03-02T10:27:44.275Z,0.40
2018-03-02T10:30:17.831Z,1.01
2018-03-02T10:32:51.561Z,1.08
2018-03-02T10:35:25.091Z,1.12
2018-03-02T10:37:58.677Z,0.97
2018-03-02T10:40:32.775Z,1.11
2018-03-02T10:43:06.344Z,1.14
2018-03-02T10:45:39.967Z,1.24
2018-03-02T10:48:13.528Z,1.25
2018-03-02T10:50:47.188Z,1.19
2018-03-02T10:53:20.814Z,0.82
2018-03-02T10:55:54.578Z,1.00
2018-03-02T10:58:28.177Z,0.89
2018-03-02T11:01:07.372Z,1.22
2018-03-02T11:03:46.758Z,1.20
2018-03-02T11:06:20.438Z,1.39
2018-03-02T11:08:54.205Z,1.01
2018-03-02T11:11:27.854Z,1.14
2018-03-02T11:14:01.506Z,1.22
2018-03-02T11:16:35.136Z,1.05
2018-03-02T11:19:08.777Z,1.05
2018-03-02T11:21:42.394Z,1.31
2018-03-02T11:24:16.079Z,1.26
2018-03-02T11:26:49.856Z,1.46
2018-03-02T11:29:23.594Z,1.20
2018-03-02T11:31:57.252Z,1.23
2018-03-02T11:34:30.945Z,1.35
2018-03-02T11:37:04.690Z,1.36
2018-03-02T11:39:38.297Z,1.26
2018-03-02T11:42:11.838Z,1.51
2018-03-02T11:44:45.609Z,1.63
2018-03-02T11:47:19.134Z,1.58
2018-03-02T11:49:52.611Z,1.56
2018-03-02T11:52:26.382Z,1.90
2018-03-02T11:54:59.914Z,1.66
2018-03-02T11:57:33.661Z,1.74
2018-03-02T12:00:07.230Z,1.87
2018-03-02T12:02:40.811Z,1.88
2018-03-02T12:05:14.361Z,2.03
2018-03-02T12:07:48.034Z,1.82
2018-03-02T12:10:21.751Z,1.93
2018-03-02T12:12:55.353Z,1.84
2018-03-02T12:15:29.078Z,2.01
2018-03-02T12:18:02.602Z,2.23
2018-03-02T12:20:36.228Z,2.45
2018-03-02T12:23:09.865Z,2.11
2018-03-02T12:25:43.464Z,2.25
2018-03-02T12:28:17.105Z,2.51
2018-03-02T12:30:50.742Z,2.27
2018-03-02T12:33:24.343Z,2.55
2018-03-02T12:35:58.102Z,2.53
2018-03-02T12:38:31.703Z,2.53
2018-03-02T12:41:05.381Z,2.73
2018-03-02T12:43:38.981Z,2.68
2018-03-02T12:46:12.589Z,2.61
2018-03-02T12:48:46.190Z,2.59
2018-03-02T12:51:19.789Z,2.72
2018-03-02T12:53:53.513Z,2.83
2018-03-02T12:56:27.057Z,2.45
2018-03-02T12:59:00.805Z,2.46
2018-03-02T13:01:34.341Z,2.12
2018-03-02T13:04:08.009Z,2.40
2018-03-02T13:06:41.621Z,2.51
2018-03-02T13:09:15.313Z,2.42
2018-03-02T13:11:48.795Z,2.46
2018-03-02T13:14:22.385Z,2.33
2018-03-02T13:16:56.009Z,2.37
2018-03-02T13:19:29.588Z,2.40
2018-03-02T13:22:03.234Z,2.50
2018-03-02T13:24:36.940Z,2.37
2018-03-02T13:27:22.213Z,2.42
2018-03-02T13:29:55.960Z,2.55
2018-03-02T13:32:29.621Z,2.52
2018-03-02T13:35:12.686Z,2.55
2018-03-02T13:37:46.342Z,2.61
2018-03-02T13:40:31.832Z,2.58
2018-03-02T13:43:05.613Z,2.91
2018-03-02T13:45:39.162Z,2.96
2018-03-02T13:51:12.413Z,2.65
2018-03-02T13:53:46.060Z,2.65
2018-03-02T13:56:31.556Z,2.59
2018-03-02T13:59:05.261Z,2.49
2018-03-02T14:01:38.817Z,2.57
2018-03-02T14:04:24.524Z,2.69
2018-03-02T14:06:58.274Z,2.78
2018-03-02T14:09:31.912Z,2.54
2018-03-02T14:12:05.586Z,2.56
2018-03-02T14:14:39.249Z,2.57
2018-03-02T14:17:12.912Z,2.51
2018-03-02T14:19:46.474Z,2.45
2018-03-02T14:22:20.396Z,2.54
2018-03-02T14:24:54.130Z,2.51
2018-03-02T14:27:27.785Z,2.46
2018-03-02T14:30:02.642Z,2.66
2018-03-02T14:32:36.268Z,2.63
2018-03-02T14:35:09.906Z,2.59
2018-03-02T14:37:43.555Z,2.40
2018-03-02T14:40:17.270Z,2.33
2018-03-02T14:42:50.996Z,2.45
2018-03-02T14:45:24.705Z,2.11
2018-03-02T14:47:58.420Z,2.07
2018-03-02T14:50:32.061Z,2.14
2018-03-02T14:53:05.726Z,2.15
2018-03-02T14:55:39.422Z,2.09
2018-03-02T14:58:13.001Z,2.02
2018-03-02T15:00:46.726Z,2.05
2018-03-02T15:03:20.296Z,2.03
2018-03-02T15:05:53.988Z,1.97
2018-03-02T15:08:27.645Z,2.03
2018-03-02T15:11:01.414Z,2.06
2018-03-02T15:13:35.293Z,2.00
2018-03-02T15:16:08.927Z,1.88
2018-03-02T15:18:42.454Z,2.01
2018-03-02T15:21:16.101Z,2.02
2018-03-02T15:23:49.773Z,1.99
2018-03-02T15:26:23.501Z,1.86
2018-03-02T15:28:57.240Z,1.82
2018-03-02T15:31:31.010Z,1.92
2018-03-02T15:34:04.703Z,1.95
2018-03-02T15:36:38.488Z,1.85
2018-03-02T15:39:12.033Z,1.71
2018-03-02T15:41:45.661Z,1.82
2018-03-02T15:44:19.290Z,1.79
2018-03-02T15:46:52.997Z,1.51
2018-03-02T15:49:26.681Z,1.55
2018-03-02T15:52:00.294Z,1.52
2018-03-02T15:54:33.930Z,1.51
2018-03-02T15:57:07.621Z,1.27
2018-03-02T15:59:41.341Z,1.48
2018-03-02T16:02:15.119Z,1.35
2018-03-02T16:04:48.902Z,1.34
2018-03-02T16:07:22.432Z,1.27
2018-03-02T16:09:56.150Z,1.38
2018-03-02T16:12:29.828Z,1.23
2018-03-02T16:15:03.590Z,1.14
2018-03-02T16:17:37.234Z,0.99
2018-03-02T16:20:10.793Z,0.89
2018-03-02T16:22:44.460Z,0.90
2018-03-02T16:25:18.278Z,0.79
2018-03-02T16:27:51.859Z,0.86
2018-03-02T16:30:25.493Z,0.89
2018-03-02T16:32:59.109Z,0.81
2018-03-02T16:35:32.759Z,0.73
2018-03-02T16:38:06.364Z,0.70
2018-03-02T16:40:40.029Z,0.70
2018-03-02T16:43:13.568Z,0.81
2018-03-02T16:45:47.339Z,0.70
2018-03-02T16:48:21.182Z,0.71
2018-03-02T16:50:54.806Z,0.65
2018-03-02T16:53:28.501Z,0.55
2018-03-02T16:56:02.110Z,0.56
2018-03-02T16:58:35.869Z,0.57
2018-03-02T17:01:09.429Z,0.50
2018-03-02T17:03:43.210Z,0.42
2018-03-02T17:06:16.983Z,0.34
2018-03-02T17:08:50.669Z,0.34
2018-03-02T17:11:24.325Z,0.33
2018-03-02T17:13:57.878Z,0.20
2018-03-02T17:16:31.749Z,0.25
2018-03-02T17:19:05.477Z,0.18
2018-03-02T17:21:39.451Z,0.12
2018-03-02T17:24:13.114Z,0.20
2018-03-02T17:26:46.703Z,0.15
2018-03-02T17:29:20.361Z,0.10
2018-03-02T17:31:54.083Z,0.09
2018-03-02T17:34:27.889Z,-0.04
2018-03-02T17:37:01.670Z,-0.05
2018-03-02T17:39:35.213Z,-0.05
2018-03-02T17:42:08.950Z,-0.09
2018-03-02T17:44:42.769Z,-0.14
2018-03-02T17:47:16.513Z,-0.17
2018-03-02T17:49:50.101Z,-0.20
2018-03-02T17:52:23.769Z,-0.20
2018-03-02T17:54:57.430Z,-0.20
2018-03-02T17:57:31.182Z,-0.20
2018-03-02T18:00:04.868Z,-0.25
2018-03-02T18:02:38.482Z,-0.23
2018-03-02T18:05:12.066Z,-0.26
2018-03-02T18:07:45.745Z,-0.28
2018-03-02T18:10:19.408Z,-0.23
2018-03-02T18:12:53.234Z,-0.26
2018-03-02T18:15:26.893Z,-0.16
2018-03-02T18:18:00.642Z,-0.23
2018-03-02T18:20:34.344Z,-0.24
2018-03-02T18:23:07.934Z,-0.24
2018-03-02T18:25:41.597Z,-0.21
2018-03-02T18:28:15.222Z,-0.19
2018-03-02T18:30:48.817Z,-0.27
2018-03-02T18:33:22.540Z,-0.35
2018-03-02T18:35:56.278Z,-0.38
2018-03-02T18:38:29.845Z,-0.54
2018-03-02T18:41:03.479Z,-0.68
2018-03-02T18:43:37.056Z,-0.70
2018-03-02T18:46:10.797Z,-0.83
2018-03-02T18:48:44.492Z,-0.85
2018-03-02T18:51:18.201Z,-0.90
2018-03-02T18:53:51.841Z,-0.92
2018-03-02T18:56:25.631Z,-0.92
2018-03-02T18:58:59.490Z,-0.90
2018-03-02T19:01:33.258Z,-0.97
2018-03-02T19:04:06.858Z,-0.88
2018-03-02T19:06:40.480Z,-0.87
2018-03-02T19:09:14.038Z,-0.95
2018-03-02T19:11:47.709Z,-1.00
2018-03-02T19:14:21.282Z,-0.95
2018-03-02T19:16:55.014Z,-1.11
2018-03-02T19:19:28.787Z,-1.18
2018-03-02T19:22:02.389Z,-1.23
2018-03-02T19:24:36.134Z,-1.24
2018-03-02T19:27:09.841Z,-1.28
2018-03-02T19:29:43.369Z,-1.36
2018-03-02T19:32:16.942Z,-1.48
2018-03-02T19:34:50.554Z,-1.51
2018-03-02T19:37:24.220Z,-1.54
2018-03-02T19:39:57.781Z,-1.56
2018-03-02T19:42:31.296Z,-1.51
2018-03-02T19:45:04.884Z,-1.54
2018-03-02T19:47:38.652Z,-1.52
2018-03-02T19:50:12.183Z,-1.56
2018-03-02T19:52:45.877Z,-1.56
2018-03-02T19:55:19.432Z,-1.59
2018-03-02T19:57:53.265Z,-1.54
2018-03-02T20:00:27.021Z,-1.51
2018-03-02T20:03:00.867Z,-1.51
2018-03-02T20:05:34.497Z,-1.56
2018-03-02T20:08:08.254Z,-1.51
2018-03-02T20:10:41.869Z,-1.43
2018-03-02T20:13:15.578Z,-1.43
2018-03-02T20:15:49.181Z,-1.54
2018-03-02T20:18:22.858Z,-1.47
2018-03-02T20:20:56.482Z,-1.55
2018-03-02T20:23:30.114Z,-1.48
2018-03-02T20:26:03.786Z,-1.50
2018-03-02T20:28:37.461Z,-1.47
2018-03-02T20:31:11.137Z,-1.50
2018-03-02T20:33:44.840Z,-1.49
2018-03-02T20:36:18.410Z,-1.49
2018-03-02T20:38:52.020Z,-1.50
2018-03-02T20:41:25.683Z,-1.49
2018-03-02T20:43:59.271Z,-1.52
2018-03-02T20:46:32.842Z,-1.48
2018-03-02T20:49:06.509Z,-1.50
2018-03-02T20:51:40.010Z,-1.57
2018-03-02T20:54:13.765Z,-1.77
2018-03-02T20:56:47.785Z,-1.74
2018-03-02T20:59:21.478Z,-1.72
2018-03-02T21:01:55.065Z,-1.75
2018-03-02T21:04:28.799Z,-1.69
2018-03-02T21:07:02.408Z,-1.72
2018-03-02T21:09:36.112Z,-1.81
2018-03-02T21:12:09.634Z,-1.84
2018-03-02T21:14:43.229Z,-1.90
2018-03-02T21:17:16.860Z,-1.94
2018-03-02T21:19:50.461Z,-2.11
2018-03-02T21:22:24.155Z,-2.38
2018-03-02T21:24:57.758Z,-2.42
2018-03-02T21:27:31.354Z,-2.54
2018-03-02T21:30:05.159Z,-2.58
2018-03-02T21:32:38.754Z,-2.53
2018-03-02T21:35:12.542Z,-2.63
2018-03-02T21:37:46.278Z,-2.70
2018-03-02T21:40:19.943Z,-2.81
2018-03-02T21:42:53.634Z,-2.93
2018-03-02T21:45:27.378Z,-2.98
2018-03-02T21:48:01.194Z,-3.13
2018-03-02T21:50:34.830Z,-3.12
2018-03-02T21:53:08.561Z,-3.09
2018-03-02T21:55:42.314Z,-3.15
2018-03-02T21:58:15.926Z,-3.18
2018-03-02T22:00:49.543Z,-3.12
2018-03-02T22:03:23.109Z,-3.08
2018-03-02T22:05:56.946Z,-3.12
2018-03-02T22:08:30.484Z,-3.14
2018-03-02T22:11:04.182Z,-3.20
2018-03-02T22:13:37.841Z,-3.13
2018-03-02T22:16:11.554Z,-3.10
2018-03-02T22:18:45.362Z,-3.29
2018-03-02T22:21:18.929Z,-3.29
2018-03-02T22:23:52.553Z,-3.29
2018-03-02T22:26:26.234Z,-3.34
2018-03-02T22:28:59.878Z,-3.29
2018-03-02T22:31:33.643Z,-3.31
2018-03-02T22:34:07.291Z,-3.34
2018-03-02T22:36:40.955Z,-3.34
2018-03-02T22:39:14.761Z,-3.33
2018-03-02T22:41:48.462Z,-3.33
2018-03-02T22:44:22.033Z,-3.33
2018-03-02T22:46:55.690Z,-3.29
2018-03-02T22:49:29.305Z,-3.42
2018-03-02T22:52:02.868Z,-3.34
2018-03-02T22:54:36.526Z,-3.25
2018-03-02T22:57:10.174Z,-3.29
2018-03-02T22:59:43.975Z,-3.28
2018-03-02T23:02:17.622Z,-3.25
2018-03-02T23:04:51.205Z,-3.28
2018-03-02T23:07:24.781Z,-3.30
2018-03-02T23:09:58.477Z,-3.28
2018-03-02T23:12:32.273Z,-3.21
2018-03-02T23:15:06.022Z,-3.26
2018-03-02T23:17:39.569Z,-3.27
2018-03-02T23:20:13.124Z,-3.21
2018-03-02T23:22:46.723Z,-3.24
2018-03-02T23:25:20.422Z,-3.20
2018-03-02T23:27:54.229Z,-3.19
2018-03-02T23:30:27.904Z,-3.19
2018-03-02T23:33:01.710Z,-3.20
2018-03-02T23:35:35.213Z,-3.18
2018-03-02T23:38:08.982Z,-3.20
2018-03-02T23:40:42.597Z,-3.25
2018-03-02T23:43:16.249Z,-3.12
2018-03-02T23:45:49.878Z,-3.13
2018-03-02T23:48:23.394Z,-3.23
2018-03-02T23:50:56.945Z,-3.22
2018-03-02T23:53:30.546Z,-3.20
2018-03-02T23:56:04.077Z,-3.21
2018-03-02T23:58:37.883Z,-3.24
